sensor_id;sensor_type;location;lat;lon;timestamp;temperature;humidity
29663;DHT22;16578;53.266;7.920;2023-02-05T00:00:04;6.30;70.80
29663;DHT22;16578;53.266;7.920;2023-02-05T00:02:30;6.30;70.80
29663;DHT22;16578;53.266;7.920;2023-02-05T00:04:56;6.30;70.80
29663;DHT22;16578;53.266;7.920;2023-02-05T00:07:22;6.20;70.70
29663;DHT22;16578;53.266;7.920;2023-02-05T00:09:47;6.30;70.70
29663;DHT22;16578;53.266;7.920;2023-02-05T00:12:13;6.30;70.60
29663;DHT22;16578;53.266;7.920;2023-02-05T00:14:39;6.30;70.60
29663;DHT22;16578;53.266;7.920;2023-02-05T00:17:04;6.20;70.60
29663;DHT22;16578;53.266;7.920;2023-02-05T00:19:30;6.20;70.60
29663;DHT22;16578;53.266;7.920;2023-02-05T00:21:55;6.20;70.60
29663;DHT22;16578;53.266;7.920;2023-02-05T00:24:21;6.20;70.70
29663;DHT22;16578;53.266;7.920;2023-02-05T00:26:46;6.20;70.70
29663;DHT22;16578;53.266;7.920;2023-02-05T00:29:12;6.20;70.70
29663;DHT22;16578;53.266;7.920;2023-02-05T00:31:37;6.20;70.70
29663;DHT22;16578;53.266;7.920;2023-02-05T00:34:03;6.20;70.70
29663;DHT22;16578;53.266;7.920;2023-02-05T00:36:28;6.20;70.70
29663;DHT22;16578;53.266;7.920;2023-02-05T00:38:54;6.30;70.80
29663;DHT22;16578;53.266;7.920;2023-02-05T00:41:20;6.30;70.70
29663;DHT22;16578;53.266;7.920;2023-02-05T00:43:45;6.20;70.60
29663;DHT22;16578;53.266;7.920;2023-02-05T00:46:12;6.30;70.60
29663;DHT22;16578;53.266;7.920;2023-02-05T00:48:38;6.20;70.60
29663;DHT22;16578;53.266;7.920;2023-02-05T00:51:05;6.30;70.70
29663;DHT22;16578;53.266;7.920;2023-02-05T00:53:31;6.20;70.70
29663;DHT22;16578;53.266;7.920;2023-02-05T00:55:56;6.30;70.80
29663;DHT22;16578;53.266;7.920;2023-02-05T00:58:22;6.30;70.80
29663;DHT22;16578;53.266;7.920;2023-02-05T01:00:49;6.30;70.80
29663;DHT22;16578;53.266;7.920;2023-02-05T01:03:15;6.30;70.70
29663;DHT22;16578;53.266;7.920;2023-02-05T01:05:40;6.30;70.80
29663;DHT22;16578;53.266;7.920;2023-02-05T01:08:07;6.40;70.80
29663;DHT22;16578;53.266;7.920;2023-02-05T01:10:34;6.40;70.80
29663;DHT22;16578;53.266;7.920;2023-02-05T01:13:02;6.40;70.80
29663;DHT22;16578;53.266;7.920;2023-02-05T01:15:27;6.40;70.70
29663;DHT22;16578;53.266;7.920;2023-02-05T01:17:53;6.40;70.70
29663;DHT22;16578;53.266;7.920;2023-02-05T01:20:19;6.40;70.70
29663;DHT22;16578;53.266;7.920;2023-02-05T01:22:46;6.40;70.60
29663;DHT22;16578;53.266;7.920;2023-02-05T01:25:12;6.40;70.50
29663;DHT22;16578;53.266;7.920;2023-02-05T01:27:37;6.40;70.50
29663;DHT22;16578;53.266;7.920;2023-02-05T01:30:04;6.40;70.60
29663;DHT22;16578;53.266;7.920;2023-02-05T01:32:30;6.40;70.50
29663;DHT22;16578;53.266;7.920;2023-02-05T01:34:56;6.40;70.50
29663;DHT22;16578;53.266;7.920;2023-02-05T01:37:21;6.40;70.50
29663;DHT22;16578;53.266;7.920;2023-02-05T01:39:47;6.50;70.60
29663;DHT22;16578;53.266;7.920;2023-02-05T01:42:22;6.40;70.60
29663;DHT22;16578;53.266;7.920;2023-02-05T01:47:44;6.50;70.70
29663;DHT22;16578;53.266;7.920;2023-02-05T01:50:09;6.50;70.70
29663;DHT22;16578;53.266;7.920;2023-02-05T01:52:35;6.50;70.60
29663;DHT22;16578;53.266;7.920;2023-02-05T01:55:01;6.50;70.70
29663;DHT22;16578;53.266;7.920;2023-02-05T01:57:27;6.50;70.90
29663;DHT22;16578;53.266;7.920;2023-02-05T01:59:52;6.50;70.80
29663;DHT22;16578;53.266;7.920;2023-02-05T02:02:18;6.50;70.70
29663;DHT22;16578;53.266;7.920;2023-02-05T02:04:53;6.60;70.70
29663;DHT22;16578;53.266;7.920;2023-02-05T02:07:23;6.60;70.70
29663;DHT22;16578;53.266;7.920;2023-02-05T02:09:49;6.50;70.60
29663;DHT22;16578;53.266;7.920;2023-02-05T02:12:30;6.60;70.70
29663;DHT22;16578;53.266;7.920;2023-02-05T02:15:00;6.60;70.60
29663;DHT22;16578;53.266;7.920;2023-02-05T02:17:29;6.60;70.60
29663;DHT22;16578;53.266;7.920;2023-02-05T02:20:05;6.60;71.50
29663;DHT22;16578;53.266;7.920;2023-02-05T02:25:32;6.60;70.60
29663;DHT22;16578;53.266;7.920;2023-02-05T02:28:20;6.60;70.60
29663;DHT22;16578;53.266;7.920;2023-02-05T02:31:44;6.60;70.60
29663;DHT22;16578;53.266;7.920;2023-02-05T02:33:56;6.60;70.70
29663;DHT22;16578;53.266;7.920;2023-02-05T02:36:31;6.60;70.60
29663;DHT22;16578;53.266;7.920;2023-02-05T02:41:49;6.60;70.50
29663;DHT22;16578;53.266;7.920;2023-02-05T02:44:36;6.60;70.50
29663;DHT22;16578;53.266;7.920;2023-02-05T02:47:20;6.60;70.60
29663;DHT22;16578;53.266;7.920;2023-02-05T02:49:50;6.60;70.70
29663;DHT22;16578;53.266;7.920;2023-02-05T02:52:20;6.60;70.60
29663;DHT22;16578;53.266;7.920;2023-02-05T02:54:49;6.60;70.60
29663;DHT22;16578;53.266;7.920;2023-02-05T02:57:17;6.60;70.50
29663;DHT22;16578;53.266;7.920;2023-02-05T02:59:45;6.60;70.60
29663;DHT22;16578;53.266;7.920;2023-02-05T03:02:12;6.60;70.60
29663;DHT22;16578;53.266;7.920;2023-02-05T03:04:42;6.60;70.60
29663;DHT22;16578;53.266;7.920;2023-02-05T03:07:45;6.60;70.70
29663;DHT22;16578;53.266;7.920;2023-02-05T03:12:36;6.60;70.70
29663;DHT22;16578;53.266;7.920;2023-02-05T03:15:02;6.50;70.60
29663;DHT22;16578;53.266;7.920;2023-02-05T03:17:28;6.50;70.60
29663;DHT22;16578;53.266;7.920;2023-02-05T03:20:02;6.50;70.70
29663;DHT22;16578;53.266;7.920;2023-02-05T03:22:29;6.50;70.80
29663;DHT22;16578;53.266;7.920;2023-02-05T03:24:55;6.50;70.80
29663;DHT22;16578;53.266;7.920;2023-02-05T03:27:21;6.50;70.90
29663;DHT22;16578;53.266;7.920;2023-02-05T03:29:47;6.50;70.80
29663;DHT22;16578;53.266;7.920;2023-02-05T03:32:35;6.50;70.80
29663;DHT22;16578;53.266;7.920;2023-02-05T03:35:25;6.50;70.90
29663;DHT22;16578;53.266;7.920;2023-02-05T03:38:31;6.50;71.00
29663;DHT22;16578;53.266;7.920;2023-02-05T03:41:11;6.50;71.00
29663;DHT22;16578;53.266;7.920;2023-02-05T03:46:31;6.30;71.20
29663;DHT22;16578;53.266;7.920;2023-02-05T03:49:10;6.50;71.30
29663;DHT22;16578;53.266;7.920;2023-02-05T03:51:49;6.50;71.50
29663;DHT22;16578;53.266;7.920;2023-02-05T03:57:27;6.50;71.90
29663;DHT22;16578;53.266;7.920;2023-02-05T03:59:55;6.60;72.00
29663;DHT22;16578;53.266;7.920;2023-02-05T04:02:22;6.60;71.90
29663;DHT22;16578;53.266;7.920;2023-02-05T04:04:48;6.60;72.00
29663;DHT22;16578;53.266;7.920;2023-02-05T04:07:13;6.60;72.20
29663;DHT22;16578;53.266;7.920;2023-02-05T04:09:39;6.60;72.20
29663;DHT22;16578;53.266;7.920;2023-02-05T04:12:05;6.60;72.30
29663;DHT22;16578;53.266;7.920;2023-02-05T04:14:30;6.60;72.30
29663;DHT22;16578;53.266;7.920;2023-02-05T04:16:56;6.50;72.40
29663;DHT22;16578;53.266;7.920;2023-02-05T04:19:21;6.50;72.40
29663;DHT22;16578;53.266;7.920;2023-02-05T04:21:47;6.50;72.50
29663;DHT22;16578;53.266;7.920;2023-02-05T04:24:12;6.50;72.70
29663;DHT22;16578;53.266;7.920;2023-02-05T04:26:38;6.50;72.80
29663;DHT22;16578;53.266;7.920;2023-02-05T04:29:03;6.50;72.90
29663;DHT22;16578;53.266;7.920;2023-02-05T04:31:29;6.50;73.00
29663;DHT22;16578;53.266;7.920;2023-02-05T04:33:54;6.50;73.20
29663;DHT22;16578;53.266;7.920;2023-02-05T04:36:20;6.40;73.10
29663;DHT22;16578;53.266;7.920;2023-02-05T04:38:46;6.40;73.30
29663;DHT22;16578;53.266;7.920;2023-02-05T04:41:11;6.40;73.30
29663;DHT22;16578;53.266;7.920;2023-02-05T04:43:37;6.40;73.50
29663;DHT22;16578;53.266;7.920;2023-02-05T04:46:09;6.40;73.60
29663;DHT22;16578;53.266;7.920;2023-02-05T04:48:35;6.40;73.80
29663;DHT22;16578;53.266;7.920;2023-02-05T04:51:09;6.40;73.90
29663;DHT22;16578;53.266;7.920;2023-02-05T04:53:35;6.50;74.10
29663;DHT22;16578;53.266;7.920;2023-02-05T04:56:18;6.40;74.10
29663;DHT22;16578;53.266;7.920;2023-02-05T04:58:44;6.50;74.30
29663;DHT22;16578;53.266;7.920;2023-02-05T05:01:14;6.50;75.10
29663;DHT22;16578;53.266;7.920;2023-02-05T05:03:41;6.50;74.10
29663;DHT22;16578;53.266;7.920;2023-02-05T05:06:07;6.50;74.20
29663;DHT22;16578;53.266;7.920;2023-02-05T05:08:32;6.50;74.10
29663;DHT22;16578;53.266;7.920;2023-02-05T05:10:58;6.60;74.30
29663;DHT22;16578;53.266;7.920;2023-02-05T05:13:24;6.50;74.20
29663;DHT22;16578;53.266;7.920;2023-02-05T05:15:54;6.60;74.30
29663;DHT22;16578;53.266;7.920;2023-02-05T05:18:20;6.50;74.20
29663;DHT22;16578;53.266;7.920;2023-02-05T05:20:45;6.50;74.20
29663;DHT22;16578;53.266;7.920;2023-02-05T05:23:11;6.50;74.30
29663;DHT22;16578;53.266;7.920;2023-02-05T05:25:41;6.50;74.40
29663;DHT22;16578;53.266;7.920;2023-02-05T05:28:07;6.50;74.50
29663;DHT22;16578;53.266;7.920;2023-02-05T05:30:32;6.50;74.60
29663;DHT22;16578;53.266;7.920;2023-02-05T05:32:58;6.50;74.60
29663;DHT22;16578;53.266;7.920;2023-02-05T05:35:23;6.50;74.70
29663;DHT22;16578;53.266;7.920;2023-02-05T05:37:49;6.50;74.80
29663;DHT22;16578;53.266;7.920;2023-02-05T05:40:14;6.50;74.80
29663;DHT22;16578;53.266;7.920;2023-02-05T05:42:58;6.50;74.80
29663;DHT22;16578;53.266;7.920;2023-02-05T05:45:42;6.50;74.90
29663;DHT22;16578;53.266;7.920;2023-02-05T05:48:08;6.50;74.90
29663;DHT22;16578;53.266;7.920;2023-02-05T05:50:33;6.50;75.00
29663;DHT22;16578;53.266;7.920;2023-02-05T05:52:59;6.50;75.90
29663;DHT22;16578;53.266;7.920;2023-02-05T05:55:24;6.50;75.10
29663;DHT22;16578;53.266;7.920;2023-02-05T05:57:50;6.50;75.20
29663;DHT22;16578;53.266;7.920;2023-02-05T06:00:16;6.50;75.20
29663;DHT22;16578;53.266;7.920;2023-02-05T06:02:41;6.50;75.30
29663;DHT22;16578;53.266;7.920;2023-02-05T06:05:09;6.50;75.40
29663;DHT22;16578;53.266;7.920;2023-02-05T06:07:35;6.60;75.40
29663;DHT22;16578;53.266;7.920;2023-02-05T06:10:01;6.60;75.40
29663;DHT22;16578;53.266;7.920;2023-02-05T06:12:26;6.60;75.50
29663;DHT22;16578;53.266;7.920;2023-02-05T06:14:52;6.60;75.50
29663;DHT22;16578;53.266;7.920;2023-02-05T06:17:17;6.60;75.50
29663;DHT22;16578;53.266;7.920;2023-02-05T06:19:43;6.60;75.40
29663;DHT22;16578;53.266;7.920;2023-02-05T06:22:08;6.60;75.40
29663;DHT22;16578;53.266;7.920;2023-02-05T06:24:34;6.60;75.40
29663;DHT22;16578;53.266;7.920;2023-02-05T06:27:00;6.60;76.50
29663;DHT22;16578;53.266;7.920;2023-02-05T06:29:25;6.60;75.50
29663;DHT22;16578;53.266;7.920;2023-02-05T06:31:51;6.50;75.50
29663;DHT22;16578;53.266;7.920;2023-02-05T06:34:16;6.50;75.50
29663;DHT22;16578;53.266;7.920;2023-02-05T06:36:42;6.50;75.60
29663;DHT22;16578;53.266;7.920;2023-02-05T06:39:07;6.50;75.80
29663;DHT22;16578;53.266;7.920;2023-02-05T06:41:33;6.50;75.80
29663;DHT22;16578;53.266;7.920;2023-02-05T06:43:58;6.50;75.90
29663;DHT22;16578;53.266;7.920;2023-02-05T06:46:24;6.50;75.90
29663;DHT22;16578;53.266;7.920;2023-02-05T06:48:49;6.50;76.00
29663;DHT22;16578;53.266;7.920;2023-02-05T06:51:15;6.50;76.00
29663;DHT22;16578;53.266;7.920;2023-02-05T06:53:40;6.50;76.00
29663;DHT22;16578;53.266;7.920;2023-02-05T06:56:06;6.50;76.10
29663;DHT22;16578;53.266;7.920;2023-02-05T06:58:31;6.50;76.20
29663;DHT22;16578;53.266;7.920;2023-02-05T07:00:57;6.50;76.20
29663;DHT22;16578;53.266;7.920;2023-02-05T07:03:22;6.50;76.30
29663;DHT22;16578;53.266;7.920;2023-02-05T07:05:48;6.50;76.40
29663;DHT22;16578;53.266;7.920;2023-02-05T07:08:14;6.50;76.40
29663;DHT22;16578;53.266;7.920;2023-02-05T07:10:39;6.50;76.40
29663;DHT22;16578;53.266;7.920;2023-02-05T07:13:05;6.50;76.30
29663;DHT22;16578;53.266;7.920;2023-02-05T07:15:30;6.50;77.10
29663;DHT22;16578;53.266;7.920;2023-02-05T07:17:56;6.50;76.40
29663;DHT22;16578;53.266;7.920;2023-02-05T07:20:22;6.50;76.50
29663;DHT22;16578;53.266;7.920;2023-02-05T07:22:47;6.50;76.50
29663;DHT22;16578;53.266;7.920;2023-02-05T07:25:13;6.50;76.60
29663;DHT22;16578;53.266;7.920;2023-02-05T07:27:38;6.50;76.50
29663;DHT22;16578;53.266;7.920;2023-02-05T07:30:04;6.50;76.60
29663;DHT22;16578;53.266;7.920;2023-02-05T07:32:30;6.50;76.60
29663;DHT22;16578;53.266;7.920;2023-02-05T07:34:55;6.50;76.60
29663;DHT22;16578;53.266;7.920;2023-02-05T07:37:21;6.50;76.60
29663;DHT22;16578;53.266;7.920;2023-02-05T07:39:47;6.40;76.60
29663;DHT22;16578;53.266;7.920;2023-02-05T07:42:12;6.40;76.70
29663;DHT22;16578;53.266;7.920;2023-02-05T07:44:38;6.40;76.70
29663;DHT22;16578;53.266;7.920;2023-02-05T07:47:03;6.40;76.90
29663;DHT22;16578;53.266;7.920;2023-02-05T07:49:29;6.40;76.90
29663;DHT22;16578;53.266;7.920;2023-02-05T07:51:54;6.40;77.00
29663;DHT22;16578;53.266;7.920;2023-02-05T07:54:20;6.40;77.00
29663;DHT22;16578;53.266;7.920;2023-02-05T07:56:45;6.40;77.10
29663;DHT22;16578;53.266;7.920;2023-02-05T07:59:11;6.40;77.10
29663;DHT22;16578;53.266;7.920;2023-02-05T08:01:37;6.40;77.10
29663;DHT22;16578;53.266;7.920;2023-02-05T08:04:02;6.40;77.10
29663;DHT22;16578;53.266;7.920;2023-02-05T08:06:28;6.50;77.40
29663;DHT22;16578;53.266;7.920;2023-02-05T08:08:53;6.50;77.40
29663;DHT22;16578;53.266;7.920;2023-02-05T08:11:20;6.50;77.50
29663;DHT22;16578;53.266;7.920;2023-02-05T08:13:46;6.50;77.50
29663;DHT22;16578;53.266;7.920;2023-02-05T08:16:13;6.50;77.50
29663;DHT22;16578;53.266;7.920;2023-02-05T08:18:40;6.50;77.50
29663;DHT22;16578;53.266;7.920;2023-02-05T08:21:06;6.50;77.60
29663;DHT22;16578;53.266;7.920;2023-02-05T08:23:31;6.60;77.60
29663;DHT22;16578;53.266;7.920;2023-02-05T08:25:58;6.60;77.70
29663;DHT22;16578;53.266;7.920;2023-02-05T08:28:25;6.70;77.80
29663;DHT22;16578;53.266;7.920;2023-02-05T08:30:51;6.70;77.90
29663;DHT22;16578;53.266;7.920;2023-02-05T08:33:17;6.70;77.90
29663;DHT22;16578;53.266;7.920;2023-02-05T08:35:43;6.70;77.90
29663;DHT22;16578;53.266;7.920;2023-02-05T08:38:09;6.80;78.00
29663;DHT22;16578;53.266;7.920;2023-02-05T08:40:35;6.80;77.90
29663;DHT22;16578;53.266;7.920;2023-02-05T08:43:00;6.90;78.00
29663;DHT22;16578;53.266;7.920;2023-02-05T08:45:27;6.90;78.00
29663;DHT22;16578;53.266;7.920;2023-02-05T08:47:53;7.00;78.00
29663;DHT22;16578;53.266;7.920;2023-02-05T08:50:20;7.00;77.90
29663;DHT22;16578;53.266;7.920;2023-02-05T08:52:45;7.00;77.90
29663;DHT22;16578;53.266;7.920;2023-02-05T08:55:12;7.10;77.90
29663;DHT22;16578;53.266;7.920;2023-02-05T08:57:37;7.20;78.00
29663;DHT22;16578;53.266;7.920;2023-02-05T09:00:04;7.20;77.90
29663;DHT22;16578;53.266;7.920;2023-02-05T09:02:29;7.20;78.00
29663;DHT22;16578;53.266;7.920;2023-02-05T09:04:55;7.30;78.00
29663;DHT22;16578;53.266;7.920;2023-02-05T09:07:21;7.30;78.00
29663;DHT22;16578;53.266;7.920;2023-02-05T09:09:46;7.40;78.00
29663;DHT22;16578;53.266;7.920;2023-02-05T09:12:12;7.40;77.90
29663;DHT22;16578;53.266;7.920;2023-02-05T09:14:38;7.50;77.70
29663;DHT22;16578;53.266;7.920;2023-02-05T09:17:05;7.50;77.60
29663;DHT22;16578;53.266;7.920;2023-02-05T09:19:33;7.50;77.40
29663;DHT22;16578;53.266;7.920;2023-02-05T09:21:59;7.50;77.40
29663;DHT22;16578;53.266;7.920;2023-02-05T09:24:24;7.40;77.60
29663;DHT22;16578;53.266;7.920;2023-02-05T09:26:50;7.50;77.30
29663;DHT22;16578;53.266;7.920;2023-02-05T09:29:15;7.60;77.30
29663;DHT22;16578;53.266;7.920;2023-02-05T09:31:41;7.60;77.40
29663;DHT22;16578;53.266;7.920;2023-02-05T09:34:06;7.60;77.50
29663;DHT22;16578;53.266;7.920;2023-02-05T09:36:32;7.70;77.50
29663;DHT22;16578;53.266;7.920;2023-02-05T09:38:57;7.70;77.50
29663;DHT22;16578;53.266;7.920;2023-02-05T09:41:39;7.70;77.50
29663;DHT22;16578;53.266;7.920;2023-02-05T09:47:12;7.80;77.80
29663;DHT22;16578;53.266;7.920;2023-02-05T09:49:58;7.80;77.70
29663;DHT22;16578;53.266;7.920;2023-02-05T09:52:31;7.90;78.00
29663;DHT22;16578;53.266;7.920;2023-02-05T09:55:02;7.90;78.00
29663;DHT22;16578;53.266;7.920;2023-02-05T09:57:36;7.90;77.90
29663;DHT22;16578;53.266;7.920;2023-02-05T10:00:31;7.90;77.80
29663;DHT22;16578;53.266;7.920;2023-02-05T10:03:30;8.00;77.90
29663;DHT22;16578;53.266;7.920;2023-02-05T10:11:50;8.00;77.50
29663;DHT22;16578;53.266;7.920;2023-02-05T10:17:07;7.80;77.80
29663;DHT22;16578;53.266;7.920;2023-02-05T10:22:26;7.90;77.50
29663;DHT22;16578;53.266;7.920;2023-02-05T10:28:07;7.90;77.70
29663;DHT22;16578;53.266;7.920;2023-02-05T10:30:54;7.90;77.80
29663;DHT22;16578;53.266;7.920;2023-02-05T10:36:02;7.90;78.00
29663;DHT22;16578;53.266;7.920;2023-02-05T10:38:34;7.90;78.00
29663;DHT22;16578;53.266;7.920;2023-02-05T10:41:06;8.00;78.20
29663;DHT22;16578;53.266;7.920;2023-02-05T10:43:46;8.00;78.40
29663;DHT22;16578;53.266;7.920;2023-02-05T10:46:14;8.00;78.70
29663;DHT22;16578;53.266;7.920;2023-02-05T10:48:42;8.00;78.60
29663;DHT22;16578;53.266;7.920;2023-02-05T10:51:19;8.10;78.80
29663;DHT22;16578;53.266;7.920;2023-02-05T10:53:47;8.10;78.90
29663;DHT22;16578;53.266;7.920;2023-02-05T10:56:17;8.20;79.00
29663;DHT22;16578;53.266;7.920;2023-02-05T11:01:16;8.30;79.00
29663;DHT22;16578;53.266;7.920;2023-02-05T11:04:04;8.20;79.50
29663;DHT22;16578;53.266;7.920;2023-02-05T11:06:36;8.40;79.60
29663;DHT22;16578;53.266;7.920;2023-02-05T11:09:04;8.40;79.30
29663;DHT22;16578;53.266;7.920;2023-02-05T11:12:13;8.50;79.40
29663;DHT22;16578;53.266;7.920;2023-02-05T11:14:44;8.60;79.90
29663;DHT22;16578;53.266;7.920;2023-02-05T11:17:19;8.60;79.80
29663;DHT22;16578;53.266;7.920;2023-02-05T11:22:39;8.80;80.30
29663;DHT22;16578;53.266;7.920;2023-02-05T11:25:06;8.90;80.10
29663;DHT22;16578;53.266;7.920;2023-02-05T11:27:33;8.90;79.90
29663;DHT22;16578;53.266;7.920;2023-02-05T11:30:35;9.00;79.90
29663;DHT22;16578;53.266;7.920;2023-02-05T11:36:06;9.10;80.30
29663;DHT22;16578;53.266;7.920;2023-02-05T11:38:47;9.20;80.50
29663;DHT22;16578;53.266;7.920;2023-02-05T11:41:29;9.30;80.60
29663;DHT22;16578;53.266;7.920;2023-02-05T11:43:58;9.30;80.50
29663;DHT22;16578;53.266;7.920;2023-02-05T11:46:27;9.40;80.40
29663;DHT22;16578;53.266;7.920;2023-02-05T11:48:55;9.40;80.30
29663;DHT22;16578;53.266;7.920;2023-02-05T11:51:39;9.40;81.00
29663;DHT22;16578;53.266;7.920;2023-02-05T11:54:27;9.50;80.70
29663;DHT22;16578;53.266;7.920;2023-02-05T12:00:35;9.70;80.20
29663;DHT22;16578;53.266;7.920;2023-02-05T12:02:42;9.80;80.00
29663;DHT22;16578;53.266;7.920;2023-02-05T12:13:13;10.00;79.20
29663;DHT22;16578;53.266;7.920;2023-02-05T12:18:47;10.10;78.80
29663;DHT22;16578;53.266;7.920;2023-02-05T12:24:17;10.20;78.40
29663;DHT22;16578;53.266;7.920;2023-02-05T12:26:47;10.20;78.20
29663;DHT22;16578;53.266;7.920;2023-02-05T12:32:27;10.30;78.00
29663;DHT22;16578;53.266;7.920;2023-02-05T12:37:55;10.30;77.70
29663;DHT22;16578;53.266;7.920;2023-02-05T12:40:43;10.40;77.50
29663;DHT22;16578;53.266;7.920;2023-02-05T12:43:38;10.40;77.30
29663;DHT22;16578;53.266;7.920;2023-02-05T12:46:26;10.40;77.10
29663;DHT22;16578;53.266;7.920;2023-02-05T12:49:32;10.40;77.00
29663;DHT22;16578;53.266;7.920;2023-02-05T12:55:13;10.40;76.80
29663;DHT22;16578;53.266;7.920;2023-02-05T12:58:12;10.50;76.60
29663;DHT22;16578;53.266;7.920;2023-02-05T13:00:42;10.50;76.20
29663;DHT22;16578;53.266;7.920;2023-02-05T13:06:04;10.50;76.10
29663;DHT22;16578;53.266;7.920;2023-02-05T13:13:43;10.40;76.00
29663;DHT22;16578;53.266;7.920;2023-02-05T13:16:15;10.50;76.00
29663;DHT22;16578;53.266;7.920;2023-02-05T13:18:45;10.50;75.70
29663;DHT22;16578;53.266;7.920;2023-02-05T13:21:16;10.50;75.50
29663;DHT22;16578;53.266;7.920;2023-02-05T13:26:51;10.60;75.30
29663;DHT22;16578;53.266;7.920;2023-02-05T13:29:47;10.50;75.20
29663;DHT22;16578;53.266;7.920;2023-02-05T13:32:17;10.50;75.10
29663;DHT22;16578;53.266;7.920;2023-02-05T13:34:44;10.50;75.10
29663;DHT22;16578;53.266;7.920;2023-02-05T13:40:27;10.60;74.90
29663;DHT22;16578;53.266;7.920;2023-02-05T13:43:27;10.60;74.90
29663;DHT22;16578;53.266;7.920;2023-02-05T13:51:45;10.70;74.90
29663;DHT22;16578;53.266;7.920;2023-02-05T13:54:58;10.70;74.70
29663;DHT22;16578;53.266;7.920;2023-02-05T13:58:02;10.70;74.40
29663;DHT22;16578;53.266;7.920;2023-02-05T14:00:30;10.70;74.30
29663;DHT22;16578;53.266;7.920;2023-02-05T14:02:57;10.70;74.40
29663;DHT22;16578;53.266;7.920;2023-02-05T14:05:40;10.70;73.90
29663;DHT22;16578;53.266;7.920;2023-02-05T14:08:22;10.70;73.60
29663;DHT22;16578;53.266;7.920;2023-02-05T14:10:59;10.70;73.40
29663;DHT22;16578;53.266;7.920;2023-02-05T14:13:28;10.70;73.30
29663;DHT22;16578;53.266;7.920;2023-02-05T14:19:16;10.70;72.90
29663;DHT22;16578;53.266;7.920;2023-02-05T14:26:50;10.50;73.00
29663;DHT22;16578;53.266;7.920;2023-02-05T14:29:42;10.60;72.80
29663;DHT22;16578;53.266;7.920;2023-02-05T14:32:12;10.60;72.60
29663;DHT22;16578;53.266;7.920;2023-02-05T14:37:03;10.60;72.70
29663;DHT22;16578;53.266;7.920;2023-02-05T14:39:33;10.50;72.30
29663;DHT22;16578;53.266;7.920;2023-02-05T14:42:02;10.50;72.00
29663;DHT22;16578;53.266;7.920;2023-02-05T14:44:38;10.50;72.00
29663;DHT22;16578;53.266;7.920;2023-02-05T14:47:28;10.50;71.80
29663;DHT22;16578;53.266;7.920;2023-02-05T14:50:07;10.40;71.80
29663;DHT22;16578;53.266;7.920;2023-02-05T14:52:37;10.40;72.00
29663;DHT22;16578;53.266;7.920;2023-02-05T14:57:59;10.40;71.80
29663;DHT22;16578;53.266;7.920;2023-02-05T15:00:36;10.40;71.70
29663;DHT22;16578;53.266;7.920;2023-02-05T15:05:35;10.30;71.90
29663;DHT22;16578;53.266;7.920;2023-02-05T15:13:28;10.30;72.20
29663;DHT22;16578;53.266;7.920;2023-02-05T15:23:50;10.20;72.40
29663;DHT22;16578;53.266;7.920;2023-02-05T15:29:26;10.10;72.40
29663;DHT22;16578;53.266;7.920;2023-02-05T15:32:04;10.10;72.50
29663;DHT22;16578;53.266;7.920;2023-02-05T15:34:36;10.10;72.50
29663;DHT22;16578;53.266;7.920;2023-02-05T15:37:22;10.00;72.60
29663;DHT22;16578;53.266;7.920;2023-02-05T15:40:04;10.00;72.60
29663;DHT22;16578;53.266;7.920;2023-02-05T15:42:40;10.00;72.70
29663;DHT22;16578;53.266;7.920;2023-02-05T15:58:54;9.80;72.60
29663;DHT22;16578;53.266;7.920;2023-02-05T16:01:38;9.80;72.60
29663;DHT22;16578;53.266;7.920;2023-02-05T16:04:26;9.70;72.50
29663;DHT22;16578;53.266;7.920;2023-02-05T16:06:52;9.70;72.50
29663;DHT22;16578;53.266;7.920;2023-02-05T16:09:20;9.60;72.50
29663;DHT22;16578;53.266;7.920;2023-02-05T16:11:47;9.60;72.40
29663;DHT22;16578;53.266;7.920;2023-02-05T16:14:20;9.60;72.50
29663;DHT22;16578;53.266;7.920;2023-02-05T16:16:56;9.60;72.40
29663;DHT22;16578;53.266;7.920;2023-02-05T16:19:32;9.50;72.30
29663;DHT22;16578;53.266;7.920;2023-02-05T16:22:09;9.50;72.30
29663;DHT22;16578;53.266;7.920;2023-02-05T16:24:40;9.50;72.30
29663;DHT22;16578;53.266;7.920;2023-02-05T16:27:24;9.40;72.30
29663;DHT22;16578;53.266;7.920;2023-02-05T16:29:56;9.40;72.30
29663;DHT22;16578;53.266;7.920;2023-02-05T16:32:30;9.30;72.30
29663;DHT22;16578;53.266;7.920;2023-02-05T16:34:58;9.30;72.30
29663;DHT22;16578;53.266;7.920;2023-02-05T16:37:28;9.30;72.30
29663;DHT22;16578;53.266;7.920;2023-02-05T16:39:56;9.20;72.10
29663;DHT22;16578;53.266;7.920;2023-02-05T16:45:13;9.20;72.20
29663;DHT22;16578;53.266;7.920;2023-02-05T16:47:41;9.10;72.20
29663;DHT22;16578;53.266;7.920;2023-02-05T16:50:34;9.10;72.20
29663;DHT22;16578;53.266;7.920;2023-02-05T16:53:02;9.10;72.00
29663;DHT22;16578;53.266;7.920;2023-02-05T16:58:00;9.00;72.20
29663;DHT22;16578;53.266;7.920;2023-02-05T17:00:27;8.90;72.10
29663;DHT22;16578;53.266;7.920;2023-02-05T17:02:57;8.90;72.20
29663;DHT22;16578;53.266;7.920;2023-02-05T17:05:30;8.90;72.20
29663;DHT22;16578;53.266;7.920;2023-02-05T17:07:58;8.90;72.30
29663;DHT22;16578;53.266;7.920;2023-02-05T17:10:26;8.90;72.40
29663;DHT22;16578;53.266;7.920;2023-02-05T17:12:59;8.80;72.30
29663;DHT22;16578;53.266;7.920;2023-02-05T17:15:32;8.80;72.40
29663;DHT22;16578;53.266;7.920;2023-02-05T17:18:00;8.80;72.30
29663;DHT22;16578;53.266;7.920;2023-02-05T17:20:31;8.80;72.40
29663;DHT22;16578;53.266;7.920;2023-02-05T17:25:37;8.70;72.50
29663;DHT22;16578;53.266;7.920;2023-02-05T17:28:04;8.70;72.50
29663;DHT22;16578;53.266;7.920;2023-02-05T17:30:30;8.70;72.60
29663;DHT22;16578;53.266;7.920;2023-02-05T17:32:56;8.60;72.70
29663;DHT22;16578;53.266;7.920;2023-02-05T17:35:22;8.60;72.60
29663;DHT22;16578;53.266;7.920;2023-02-05T17:37:51;8.60;72.60
29663;DHT22;16578;53.266;7.920;2023-02-05T17:40:17;8.50;72.90
29663;DHT22;16578;53.266;7.920;2023-02-05T17:42:44;8.50;72.80
29663;DHT22;16578;53.266;7.920;2023-02-05T17:45:22;8.50;72.70
29663;DHT22;16578;53.266;7.920;2023-02-05T17:47:49;8.50;72.60
29663;DHT22;16578;53.266;7.920;2023-02-05T17:50:15;8.30;73.00
29663;DHT22;16578;53.266;7.920;2023-02-05T17:52:45;8.40;72.90
29663;DHT22;16578;53.266;7.920;2023-02-05T17:55:13;8.40;72.80
29663;DHT22;16578;53.266;7.920;2023-02-05T17:57:40;8.30;72.80
29663;DHT22;16578;53.266;7.920;2023-02-05T18:00:18;8.20;73.10
29663;DHT22;16578;53.266;7.920;2023-02-05T18:02:44;8.20;73.00
29663;DHT22;16578;53.266;7.920;2023-02-05T18:05:10;8.20;73.00
29663;DHT22;16578;53.266;7.920;2023-02-05T18:07:43;8.20;73.00
29663;DHT22;16578;53.266;7.920;2023-02-05T18:10:12;8.20;73.10
29663;DHT22;16578;53.266;7.920;2023-02-05T18:12:38;8.10;73.10
29663;DHT22;16578;53.266;7.920;2023-02-05T18:15:04;8.10;73.20
29663;DHT22;16578;53.266;7.920;2023-02-05T18:17:30;8.10;73.20
29663;DHT22;16578;53.266;7.920;2023-02-05T18:19:56;8.10;73.30
29663;DHT22;16578;53.266;7.920;2023-02-05T18:22:21;8.10;73.30
29663;DHT22;16578;53.266;7.920;2023-02-05T18:24:47;8.10;73.30
29663;DHT22;16578;53.266;7.920;2023-02-05T18:27:12;8.10;73.30
29663;DHT22;16578;53.266;7.920;2023-02-05T18:29:38;8.10;73.40